sensor_id;sensor_type;location;lat;lon;timestamp;P1;durP1;ratioP1;P2;durP2;ratioP2
36995;SDS011;22905;50.340;10.776;2022-08-19T00:02:00;31.25;;;19.90;;
36995;SDS011;22905;50.340;10.776;2022-08-19T00:07:00;30.87;;;20.93;;
36995;SDS011;22905;50.340;10.776;2022-08-19T00:12:00;32.60;;;20.40;;
36995;SDS011;22905;50.340;10.776;2022-08-19T00:17:01;34.42;;;21.45;;
36995;SDS011;22905;50.340;10.776;2022-08-19T00:22:03;31.60;;;20.07;;
36995;SDS011;22905;50.340;10.776;2022-08-19T00:27:03;33.00;;;20.33;;
36995;SDS011;22905;50.340;10.776;2022-08-19T00:32:05;35.42;;;21.92;;
36995;SDS011;22905;50.340;10.776;2022-08-19T00:37:06;31.70;;;21.50;;
36995;SDS011;22905;50.340;10.776;2022-08-19T00:42:06;33.08;;;20.40;;
36995;SDS011;22905;50.340;10.776;2022-08-19T00:47:07;30.35;;;20.17;;
36995;SDS011;22905;50.340;10.776;2022-08-19T00:52:08;30.87;;;19.10;;
36995;SDS011;22905;50.340;10.776;2022-08-19T00:57:13;28.58;;;18.80;;
36995;SDS011;22905;50.340;10.776;2022-08-19T01:02:16;31.52;;;19.73;;
36995;SDS011;22905;50.340;10.776;2022-08-19T01:07:17;33.83;;;19.20;;
36995;SDS011;22905;50.340;10.776;2022-08-19T01:12:17;33.13;;;19.45;;
36995;SDS011;22905;50.340;10.776;2022-08-19T01:17:18;32.05;;;18.77;;
36995;SDS011;22905;50.340;10.776;2022-08-19T01:22:27;30.58;;;18.85;;
36995;SDS011;22905;50.340;10.776;2022-08-19T01:27:36;32.22;;;19.75;;
36995;SDS011;22905;50.340;10.776;2022-08-19T01:32:37;32.67;;;19.40;;
36995;SDS011;22905;50.340;10.776;2022-08-19T01:37:45;31.20;;;19.38;;
36995;SDS011;22905;50.340;10.776;2022-08-19T01:42:49;30.00;;;18.63;;
36995;SDS011;22905;50.340;10.776;2022-08-19T01:47:50;32.70;;;19.90;;
36995;SDS011;22905;50.340;10.776;2022-08-19T01:52:50;31.48;;;19.13;;
36995;SDS011;22905;50.340;10.776;2022-08-19T01:57:52;28.92;;;18.73;;
36995;SDS011;22905;50.340;10.776;2022-08-19T02:02:54;28.45;;;17.95;;
36995;SDS011;22905;50.340;10.776;2022-08-19T02:07:55;27.93;;;18.60;;
36995;SDS011;22905;50.340;10.776;2022-08-19T02:12:56;26.05;;;17.45;;
36995;SDS011;22905;50.340;10.776;2022-08-19T02:17:56;26.00;;;17.17;;
36995;SDS011;22905;50.340;10.776;2022-08-19T02:22:57;25.07;;;16.83;;
36995;SDS011;22905;50.340;10.776;2022-08-19T02:27:57;25.42;;;16.58;;
36995;SDS011;22905;50.340;10.776;2022-08-19T02:32:57;26.13;;;16.20;;
36995;SDS011;22905;50.340;10.776;2022-08-19T02:37:58;25.87;;;17.27;;
36995;SDS011;22905;50.340;10.776;2022-08-19T02:43:17;23.95;;;16.42;;
36995;SDS011;22905;50.340;10.776;2022-08-19T02:48:18;28.97;;;16.03;;
36995;SDS011;22905;50.340;10.776;2022-08-19T02:53:19;27.58;;;16.58;;
36995;SDS011;22905;50.340;10.776;2022-08-19T02:58:22;26.20;;;17.02;;
36995;SDS011;22905;50.340;10.776;2022-08-19T03:03:23;27.92;;;17.17;;
36995;SDS011;22905;50.340;10.776;2022-08-19T03:08:24;22.97;;;15.07;;
36995;SDS011;22905;50.340;10.776;2022-08-19T03:13:25;27.35;;;16.45;;
36995;SDS011;22905;50.340;10.776;2022-08-19T03:18:26;25.20;;;17.02;;
36995;SDS011;22905;50.340;10.776;2022-08-19T03:23:26;23.40;;;15.97;;
36995;SDS011;22905;50.340;10.776;2022-08-19T03:28:26;24.13;;;15.70;;
36995;SDS011;22905;50.340;10.776;2022-08-19T03:33:28;25.58;;;16.02;;
36995;SDS011;22905;50.340;10.776;2022-08-19T03:38:29;25.98;;;15.60;;
36995;SDS011;22905;50.340;10.776;2022-08-19T03:43:30;25.63;;;17.13;;
36995;SDS011;22905;50.340;10.776;2022-08-19T03:48:30;24.02;;;16.27;;
36995;SDS011;22905;50.340;10.776;2022-08-19T03:53:32;24.98;;;17.17;;
36995;SDS011;22905;50.340;10.776;2022-08-19T03:58:33;25.83;;;17.52;;
36995;SDS011;22905;50.340;10.776;2022-08-19T04:03:34;27.77;;;18.02;;
36995;SDS011;22905;50.340;10.776;2022-08-19T04:08:35;28.70;;;17.30;;
36995;SDS011;22905;50.340;10.776;2022-08-19T04:13:36;23.05;;;17.00;;
36995;SDS011;22905;50.340;10.776;2022-08-19T04:18:37;24.45;;;17.10;;
36995;SDS011;22905;50.340;10.776;2022-08-19T04:23:38;26.40;;;17.30;;
36995;SDS011;22905;50.340;10.776;2022-08-19T04:28:38;24.85;;;14.18;;
36995;SDS011;22905;50.340;10.776;2022-08-19T04:33:39;19.15;;;13.95;;
36995;SDS011;22905;50.340;10.776;2022-08-19T04:38:39;21.38;;;15.73;;
36995;SDS011;22905;50.340;10.776;2022-08-19T04:43:39;24.25;;;15.25;;
36995;SDS011;22905;50.340;10.776;2022-08-19T04:48:40;23.67;;;15.30;;
36995;SDS011;22905;50.340;10.776;2022-08-19T04:53:41;21.05;;;14.80;;
36995;SDS011;22905;50.340;10.776;2022-08-19T04:58:42;22.23;;;15.20;;
36995;SDS011;22905;50.340;10.776;2022-08-19T05:03:44;20.63;;;13.57;;
36995;SDS011;22905;50.340;10.776;2022-08-19T05:08:44;26.83;;;16.67;;
36995;SDS011;22905;50.340;10.776;2022-08-19T05:13:45;23.83;;;16.35;;
36995;SDS011;22905;50.340;10.776;2022-08-19T05:18:46;28.52;;;17.55;;
36995;SDS011;22905;50.340;10.776;2022-08-19T05:24:05;24.38;;;17.20;;
36995;SDS011;22905;50.340;10.776;2022-08-19T05:29:09;22.88;;;15.73;;
36995;SDS011;22905;50.340;10.776;2022-08-19T05:34:10;26.90;;;16.77;;
36995;SDS011;22905;50.340;10.776;2022-08-19T05:39:14;23.90;;;16.25;;
36995;SDS011;22905;50.340;10.776;2022-08-19T05:44:17;21.27;;;14.23;;
36995;SDS011;22905;50.340;10.776;2022-08-19T05:49:18;21.27;;;14.25;;
36995;SDS011;22905;50.340;10.776;2022-08-19T05:54:19;22.30;;;15.17;;
36995;SDS011;22905;50.340;10.776;2022-08-19T05:59:20;19.92;;;14.32;;
36995;SDS011;22905;50.340;10.776;2022-08-19T06:04:21;20.37;;;13.73;;
36995;SDS011;22905;50.340;10.776;2022-08-19T06:09:22;22.88;;;14.10;;
36995;SDS011;22905;50.340;10.776;2022-08-19T06:14:24;23.33;;;15.05;;
36995;SDS011;22905;50.340;10.776;2022-08-19T06:19:26;22.20;;;14.85;;
36995;SDS011;22905;50.340;10.776;2022-08-19T06:24:29;21.48;;;15.40;;
36995;SDS011;22905;50.340;10.776;2022-08-19T06:29:30;23.08;;;16.20;;
36995;SDS011;22905;50.340;10.776;2022-08-19T06:34:32;24.37;;;15.70;;
36995;SDS011;22905;50.340;10.776;2022-08-19T06:39:36;22.23;;;14.90;;
36995;SDS011;22905;50.340;10.776;2022-08-19T06:44:39;21.25;;;15.45;;
36995;SDS011;22905;50.340;10.776;2022-08-19T06:49:40;21.98;;;14.55;;
36995;SDS011;22905;50.340;10.776;2022-08-19T06:54:41;25.58;;;16.58;;
36995;SDS011;22905;50.340;10.776;2022-08-19T06:59:42;29.08;;;16.92;;
36995;SDS011;22905;50.340;10.776;2022-08-19T07:04:42;25.42;;;16.65;;
36995;SDS011;22905;50.340;10.776;2022-08-19T07:09:43;24.25;;;18.27;;
36995;SDS011;22905;50.340;10.776;2022-08-19T07:14:43;26.30;;;17.58;;
36995;SDS011;22905;50.340;10.776;2022-08-19T07:19:45;27.58;;;17.85;;
36995;SDS011;22905;50.340;10.776;2022-08-19T07:24:46;26.93;;;18.70;;
36995;SDS011;22905;50.340;10.776;2022-08-19T07:29:47;26.13;;;16.85;;
36995;SDS011;22905;50.340;10.776;2022-08-19T07:34:47;23.80;;;15.93;;
36995;SDS011;22905;50.340;10.776;2022-08-19T07:39:47;26.40;;;17.93;;
36995;SDS011;22905;50.340;10.776;2022-08-19T07:44:48;20.92;;;16.35;;
36995;SDS011;22905;50.340;10.776;2022-08-19T07:49:48;20.92;;;16.15;;
36995;SDS011;22905;50.340;10.776;2022-08-19T07:54:48;21.47;;;15.63;;
36995;SDS011;22905;50.340;10.776;2022-08-19T07:59:49;19.98;;;14.40;;
36995;SDS011;22905;50.340;10.776;2022-08-19T08:04:49;21.90;;;16.48;;
36995;SDS011;22905;50.340;10.776;2022-08-19T08:10:08;21.30;;;17.00;;
36995;SDS011;22905;50.340;10.776;2022-08-19T08:15:13;22.57;;;15.50;;
36995;SDS011;22905;50.340;10.776;2022-08-19T08:20:19;26.88;;;16.88;;
36995;SDS011;22905;50.340;10.776;2022-08-19T08:25:20;26.02;;;18.08;;
36995;SDS011;22905;50.340;10.776;2022-08-19T08:30:23;25.60;;;18.67;;
36995;SDS011;22905;50.340;10.776;2022-08-19T08:35:25;28.10;;;18.67;;
36995;SDS011;22905;50.340;10.776;2022-08-19T08:40:30;25.67;;;17.17;;
36995;SDS011;22905;50.340;10.776;2022-08-19T08:45:31;25.15;;;16.30;;
36995;SDS011;22905;50.340;10.776;2022-08-19T08:50:38;30.67;;;20.88;;
36995;SDS011;22905;50.340;10.776;2022-08-19T08:55:40;30.75;;;21.25;;
36995;SDS011;22905;50.340;10.776;2022-08-19T09:00:45;31.42;;;21.23;;
36995;SDS011;22905;50.340;10.776;2022-08-19T09:10:51;23.17;;;17.90;;
36995;SDS011;22905;50.340;10.776;2022-08-19T09:15:58;27.55;;;18.52;;
36995;SDS011;22905;50.340;10.776;2022-08-19T09:21:01;21.88;;;15.85;;
36995;SDS011;22905;50.340;10.776;2022-08-19T09:26:06;22.48;;;15.68;;
36995;SDS011;22905;50.340;10.776;2022-08-19T09:31:07;23.00;;;15.13;;
36995;SDS011;22905;50.340;10.776;2022-08-19T09:36:09;16.65;;;13.57;;
36995;SDS011;22905;50.340;10.776;2022-08-19T09:41:15;19.50;;;13.02;;
36995;SDS011;22905;50.340;10.776;2022-08-19T09:46:18;15.60;;;12.27;;
36995;SDS011;22905;50.340;10.776;2022-08-19T09:51:22;17.40;;;13.25;;
36995;SDS011;22905;50.340;10.776;2022-08-19T09:56:24;16.88;;;10.20;;
36995;SDS011;22905;50.340;10.776;2022-08-19T10:01:25;11.60;;;9.57;;
36995;SDS011;22905;50.340;10.776;2022-08-19T10:06:26;13.43;;;8.13;;
36995;SDS011;22905;50.340;10.776;2022-08-19T10:11:33;11.43;;;7.85;;
36995;SDS011;22905;50.340;10.776;2022-08-19T10:16:37;12.88;;;8.57;;
36995;SDS011;22905;50.340;10.776;2022-08-19T10:21:40;16.83;;;8.07;;
36995;SDS011;22905;50.340;10.776;2022-08-19T10:26:40;10.77;;;6.95;;
36995;SDS011;22905;50.340;10.776;2022-08-19T10:31:47;10.05;;;6.53;;
36995;SDS011;22905;50.340;10.776;2022-08-19T10:36:48;9.48;;;7.90;;
36995;SDS011;22905;50.340;10.776;2022-08-19T10:41:48;8.23;;;6.17;;
36995;SDS011;22905;50.340;10.776;2022-08-19T10:46:48;11.13;;;6.17;;
36995;SDS011;22905;50.340;10.776;2022-08-19T10:51:49;8.80;;;6.10;;
36995;SDS011;22905;50.340;10.776;2022-08-19T10:57:08;8.85;;;5.63;;
36995;SDS011;22905;50.340;10.776;2022-08-19T11:02:09;8.65;;;6.28;;
36995;SDS011;22905;50.340;10.776;2022-08-19T11:07:11;7.68;;;5.18;;
36995;SDS011;22905;50.340;10.776;2022-08-19T11:12:12;9.48;;;4.97;;
36995;SDS011;22905;50.340;10.776;2022-08-19T11:17:12;4.70;;;4.20;;
36995;SDS011;22905;50.340;10.776;2022-08-19T11:22:13;7.82;;;4.50;;
36995;SDS011;22905;50.340;10.776;2022-08-19T11:27:13;8.43;;;3.70;;
36995;SDS011;22905;50.340;10.776;2022-08-19T11:32:14;6.73;;;4.97;;
36995;SDS011;22905;50.340;10.776;2022-08-19T11:37:15;3.83;;;3.27;;
36995;SDS011;22905;50.340;10.776;2022-08-19T11:42:16;4.65;;;3.22;;
36995;SDS011;22905;50.340;10.776;2022-08-19T11:47:36;9.90;;;6.30;;
36995;SDS011;22905;50.340;10.776;2022-08-19T11:52:36;4.20;;;2.60;;
36995;SDS011;22905;50.340;10.776;2022-08-19T11:57:36;2.33;;;2.13;;
36995;SDS011;22905;50.340;10.776;2022-08-19T12:02:37;2.83;;;1.80;;
36995;SDS011;22905;50.340;10.776;2022-08-19T12:07:37;6.95;;;1.88;;
36995;SDS011;22905;50.340;10.776;2022-08-19T12:12:37;2.40;;;1.40;;
36995;SDS011;22905;50.340;10.776;2022-08-19T12:17:42;2.50;;;1.58;;
36995;SDS011;22905;50.340;10.776;2022-08-19T12:22:42;5.37;;;2.20;;
36995;SDS011;22905;50.340;10.776;2022-08-19T12:27:43;2.00;;;1.50;;
36995;SDS011;22905;50.340;10.776;2022-08-19T12:32:44;2.40;;;1.20;;
36995;SDS011;22905;50.340;10.776;2022-08-19T12:37:44;4.40;;;1.57;;
36995;SDS011;22905;50.340;10.776;2022-08-19T12:42:46;1.73;;;1.52;;
36995;SDS011;22905;50.340;10.776;2022-08-19T12:47:46;2.07;;;1.63;;
36995;SDS011;22905;50.340;10.776;2022-08-19T12:52:48;1.57;;;1.20;;
36995;SDS011;22905;50.340;10.776;2022-08-19T12:57:49;4.10;;;2.53;;
36995;SDS011;22905;50.340;10.776;2022-08-19T13:02:51;3.97;;;2.87;;
36995;SDS011;22905;50.340;10.776;2022-08-19T13:12:57;1.42;;;1.33;;
36995;SDS011;22905;50.340;10.776;2022-08-19T13:17:59;2.22;;;2.03;;
36995;SDS011;22905;50.340;10.776;2022-08-19T13:22:59;2.83;;;1.57;;
36995;SDS011;22905;50.340;10.776;2022-08-19T13:28:00;3.50;;;1.67;;
36995;SDS011;22905;50.340;10.776;2022-08-19T13:33:00;2.20;;;2.00;;
36995;SDS011;22905;50.340;10.776;2022-08-19T13:38:17;1.55;;;1.42;;
36995;SDS011;22905;50.340;10.776;2022-08-19T13:43:21;2.50;;;1.70;;
36995;SDS011;22905;50.340;10.776;2022-08-19T13:48:22;3.30;;;1.77;;
36995;SDS011;22905;50.340;10.776;2022-08-19T13:53:25;4.72;;;1.90;;
36995;SDS011;22905;50.340;10.776;2022-08-19T13:58:25;3.63;;;2.30;;
36995;SDS011;22905;50.340;10.776;2022-08-19T14:03:26;5.50;;;3.22;;
36995;SDS011;22905;50.340;10.776;2022-08-19T14:08:27;3.78;;;1.90;;
36995;SDS011;22905;50.340;10.776;2022-08-19T14:13:28;3.37;;;2.97;;
36995;SDS011;22905;50.340;10.776;2022-08-19T14:18:28;6.10;;;2.13;;
36995;SDS011;22905;50.340;10.776;2022-08-19T14:23:29;1.30;;;1.20;;
36995;SDS011;22905;50.340;10.776;2022-08-19T14:28:29;2.03;;;1.20;;
36995;SDS011;22905;50.340;10.776;2022-08-19T14:33:30;1.77;;;1.50;;
36995;SDS011;22905;50.340;10.776;2022-08-19T14:38:30;2.27;;;1.43;;
36995;SDS011;22905;50.340;10.776;2022-08-19T14:43:31;1.35;;;1.25;;
36995;SDS011;22905;50.340;10.776;2022-08-19T14:48:31;5.70;;;2.37;;
36995;SDS011;22905;50.340;10.776;2022-08-19T14:53:32;1.30;;;1.20;;
36995;SDS011;22905;50.340;10.776;2022-08-19T14:58:33;2.35;;;1.40;;
36995;SDS011;22905;50.340;10.776;2022-08-19T15:03:33;2.97;;;2.08;;
36995;SDS011;22905;50.340;10.776;2022-08-19T15:08:34;2.33;;;1.53;;
36995;SDS011;22905;50.340;10.776;2022-08-19T15:13:36;1.38;;;1.17;;
36995;SDS011;22905;50.340;10.776;2022-08-19T15:18:37;2.47;;;1.65;;
36995;SDS011;22905;50.340;10.776;2022-08-19T15:23:38;2.35;;;1.35;;
36995;SDS011;22905;50.340;10.776;2022-08-19T15:28:38;6.20;;;4.63;;
36995;SDS011;22905;50.340;10.776;2022-08-19T15:33:39;12.33;;;7.03;;
36995;SDS011;22905;50.340;10.776;2022-08-19T15:38:44;2.50;;;2.10;;
36995;SDS011;22905;50.340;10.776;2022-08-19T15:43:46;2.97;;;1.77;;
36995;SDS011;22905;50.340;10.776;2022-08-19T15:48:48;4.28;;;1.90;;
36995;SDS011;22905;50.340;10.776;2022-08-19T15:53:49;4.60;;;3.70;;
36995;SDS011;22905;50.340;10.776;2022-08-19T15:58:50;7.40;;;2.03;;
36995;SDS011;22905;50.340;10.776;2022-08-19T16:04:09;4.88;;;1.85;;
36995;SDS011;22905;50.340;10.776;2022-08-19T16:09:28;10.32;;;3.85;;
36995;SDS011;22905;50.340;10.776;2022-08-19T16:14:31;3.92;;;2.40;;
36995;SDS011;22905;50.340;10.776;2022-08-19T16:19:32;3.70;;;2.40;;
36995;SDS011;22905;50.340;10.776;2022-08-19T16:24:32;4.10;;;2.27;;
36995;SDS011;22905;50.340;10.776;2022-08-19T16:29:32;6.27;;;4.17;;
36995;SDS011;22905;50.340;10.776;2022-08-19T16:34:36;5.28;;;2.15;;
36995;SDS011;22905;50.340;10.776;2022-08-19T16:39:39;4.22;;;2.30;;
36995;SDS011;22905;50.340;10.776;2022-08-19T16:44:41;4.23;;;2.23;;
36995;SDS011;22905;50.340;10.776;2022-08-19T16:49:44;2.38;;;1.90;;
36995;SDS011;22905;50.340;10.776;2022-08-19T16:54:44;3.78;;;1.90;;
36995;SDS011;22905;50.340;10.776;2022-08-19T16:59:45;17.92;;;11.85;;
36995;SDS011;22905;50.340;10.776;2022-08-19T17:04:45;25.67;;;14.13;;
36995;SDS011;22905;50.340;10.776;2022-08-19T17:09:48;10.43;;;6.43;;
36995;SDS011;22905;50.340;10.776;2022-08-19T17:14:49;4.60;;;2.90;;
36995;SDS011;22905;50.340;10.776;2022-08-19T17:19:50;2.95;;;2.13;;
36995;SDS011;22905;50.340;10.776;2022-08-19T17:24:51;2.40;;;2.20;;
36995;SDS011;22905;50.340;10.776;2022-08-19T17:29:51;7.57;;;5.65;;
36995;SDS011;22905;50.340;10.776;2022-08-19T17:34:52;4.33;;;3.77;;
36995;SDS011;22905;50.340;10.776;2022-08-19T17:39:55;5.55;;;2.47;;
36995;SDS011;22905;50.340;10.776;2022-08-19T17:44:56;4.43;;;2.63;;
36995;SDS011;22905;50.340;10.776;2022-08-19T17:49:59;4.38;;;2.65;;
36995;SDS011;22905;50.340;10.776;2022-08-19T17:55:00;3.03;;;2.40;;
36995;SDS011;22905;50.340;10.776;2022-08-19T18:00:01;8.85;;;3.65;;
36995;SDS011;22905;50.340;10.776;2022-08-19T18:05:02;4.93;;;3.28;;
36995;SDS011;22905;50.340;10.776;2022-08-19T18:10:03;5.90;;;4.05;;
36995;SDS011;22905;50.340;10.776;2022-08-19T18:15:05;2.85;;;2.13;;
36995;SDS011;22905;50.340;10.776;2022-08-19T18:25:09;3.25;;;1.98;;
36995;SDS011;22905;50.340;10.776;2022-08-19T18:30:12;3.72;;;2.70;;
36995;SDS011;22905;50.340;10.776;2022-08-19T18:35:16;5.03;;;3.63;;
36995;SDS011;22905;50.340;10.776;2022-08-19T18:40:19;6.07;;;3.13;;
36995;SDS011;22905;50.340;10.776;2022-08-19T18:45:40;5.43;;;2.97;;
36995;SDS011;22905;50.340;10.776;2022-08-19T18:51:00;3.20;;;2.42;;
36995;SDS011;22905;50.340;10.776;2022-08-19T18:56:01;3.50;;;2.22;;
36995;SDS011;22905;50.340;10.776;2022-08-19T19:06:17;3.25;;;2.15;;
36995;SDS011;22905;50.340;10.776;2022-08-19T19:11:25;4.18;;;2.50;;
36995;SDS011;22905;50.340;10.776;2022-08-19T19:16:27;4.05;;;2.28;;
36995;SDS011;22905;50.340;10.776;2022-08-19T19:21:28;3.50;;;2.73;;
36995;SDS011;22905;50.340;10.776;2022-08-19T19:26:29;7.63;;;5.43;;
36995;SDS011;22905;50.340;10.776;2022-08-19T19:31:29;4.40;;;3.28;;
36995;SDS011;22905;50.340;10.776;2022-08-19T19:36:32;3.20;;;2.45;;
36995;SDS011;22905;50.340;10.776;2022-08-19T19:41:32;3.38;;;2.25;;
36995;SDS011;22905;50.340;10.776;2022-08-19T19:46:53;3.22;;;2.20;;
36995;SDS011;22905;50.340;10.776;2022-08-19T19:51:54;2.40;;;2.20;;
36995;SDS011;22905;50.340;10.776;2022-08-19T19:56:54;3.05;;;2.33;;
36995;SDS011;22905;50.340;10.776;2022-08-19T20:01:55;5.82;;;2.33;;
36995;SDS011;22905;50.340;10.776;2022-08-19T20:06:55;3.13;;;2.17;;
36995;SDS011;22905;50.340;10.776;2022-08-19T20:11:56;3.47;;;2.85;;
36995;SDS011;22905;50.340;10.776;2022-08-19T20:16:57;5.95;;;2.95;;
36995;SDS011;22905;50.340;10.776;2022-08-19T20:21:58;4.00;;;2.53;;
36995;SDS011;22905;50.340;10.776;2022-08-19T20:26:59;7.32;;;4.00;;
36995;SDS011;22905;50.340;10.776;2022-08-19T20:32:00;5.95;;;4.78;;
36995;SDS011;22905;50.340;10.776;2022-08-19T20:37:01;6.55;;;2.60;;
36995;SDS011;22905;50.340;10.776;2022-08-19T20:42:01;3.92;;;2.75;;
36995;SDS011;22905;50.340;10.776;2022-08-19T20:47:01;16.20;;;10.18;;
36995;SDS011;22905;50.340;10.776;2022-08-19T20:52:02;11.18;;;5.00;;
36995;SDS011;22905;50.340;10.776;2022-08-19T20:57:03;12.17;;;4.40;;
36995;SDS011;22905;50.340;10.776;2022-08-19T21:02:04;4.65;;;3.33;;
36995;SDS011;22905;50.340;10.776;2022-08-19T21:07:05;3.38;;;3.08;;
36995;SDS011;22905;50.340;10.776;2022-08-19T21:12:12;8.43;;;5.53;;
36995;SDS011;22905;50.340;10.776;2022-08-19T21:17:13;13.23;;;6.60;;
36995;SDS011;22905;50.340;10.776;2022-08-19T21:22:13;8.13;;;4.20;;
36995;SDS011;22905;50.340;10.776;2022-08-19T21:27:14;8.27;;;4.73;;
36995;SDS011;22905;50.340;10.776;2022-08-19T21:32:14;5.57;;;3.87;;
36995;SDS011;22905;50.340;10.776;2022-08-19T21:37:15;20.45;;;13.15;;
36995;SDS011;22905;50.340;10.776;2022-08-19T21:42:15;7.30;;;3.90;;
36995;SDS011;22905;50.340;10.776;2022-08-19T21:47:16;5.87;;;2.70;;
36995;SDS011;22905;50.340;10.776;2022-08-19T21:52:20;5.90;;;4.10;;
36995;SDS011;22905;50.340;10.776;2022-08-19T21:57:21;7.28;;;3.75;;
36995;SDS011;22905;50.340;10.776;2022-08-19T22:02:23;4.35;;;3.22;;
36995;SDS011;22905;50.340;10.776;2022-08-19T22:07:23;5.60;;;4.18;;
36995;SDS011;22905;50.340;10.776;2022-08-19T22:12:28;7.10;;;4.10;;
36995;SDS011;22905;50.340;10.776;2022-08-19T22:17:30;8.45;;;5.05;;
36995;SDS011;22905;50.340;10.776;2022-08-19T22:22:33;11.07;;;4.53;;
36995;SDS011;22905;50.340;10.776;2022-08-19T22:27:33;7.72;;;4.18;;
36995;SDS011;22905;50.340;10.776;2022-08-19T22:32:34;13.50;;;4.88;;
36995;SDS011;22905;50.340;10.776;2022-08-19T22:37:35;5.53;;;4.45;;
36995;SDS011;22905;50.340;10.776;2022-08-19T22:42:35;8.57;;;4.50;;
36995;SDS011;22905;50.340;10.776;2022-08-19T22:47:37;9.57;;;6.18;;
36995;SDS011;22905;50.340;10.776;2022-08-19T22:52:38;8.68;;;4.45;;
36995;SDS011;22905;50.340;10.776;2022-08-19T22:57:41;5.25;;;3.67;;
36995;SDS011;22905;50.340;10.776;2022-08-19T23:02:42;6.78;;;4.93;;
36995;SDS011;22905;50.340;10.776;2022-08-19T23:07:42;13.77;;;5.27;;
36995;SDS011;22905;50.340;10.776;2022-08-19T23:12:44;8.20;;;4.70;;
36995;SDS011;22905;50.340;10.776;2022-08-19T23:17:46;6.13;;;4.35;;
36995;SDS011;22905;50.340;10.776;2022-08-19T23:22:46;6.00;;;4.47;;
36995;SDS011;22905;50.340;10.776;2022-08-19T23:27:51;7.38;;;5.05;;
36995;SDS011;22905;50.340;10.776;2022-08-19T23:33:17;8.63;;;5.20;;
36995;SDS011;22905;50.340;10.776;2022-08-19T23:38:23;7.05;;;4.78;;
36995;SDS011;22905;50.340;10.776;2022-08-19T23:43:25;8.47;;;5.70;;
36995;SDS011;22905;50.340;10.776;2022-08-19T23:48:28;7.50;;;5.03;;
36995;SDS011;22905;50.340;10.776;2022-08-19T23:53:30;6.40;;;5.05;;
36995;SDS011;22905;50.340;10.776;2022-08-19T23:58:31;7.78;;;5.72;;
